VAM | Vabird-VBD

Virtual Vabird! Aerolínea Virtual de habla hispana, desde 2011




 INFORMACIÓN METAR y TAF
METAR FOR LEAS
ADDS - METARS form results

(1318 UTC 12 April 2021)
Data provider http://aviationweather.gov/metar/data/
 
METAR text: LEAS 121300Z 08016G29KT 050V110 CAVOK 12/04 Q1026 NOSIG
Conditions at: LEAS (ASTURIAS/AVILES , ES) observed 1300 UTC 12 April 2021
Temperature: 12.0°C (54°F)
Dewpoint: 4.0°C (39°F) [RH = 58%]
Pressure (altimeter): 30.30 inches Hg (1026.0 mb)
Winds: from the E (80 degrees) at 18 MPH (16 knots; 8.2 m/s)
gusting to 33 MPH (29 knots; 14.9 m/s)
Visibility: 6 or more miles (10+ km)
Ceiling: ceiling and visibility are OK
Clouds: unknown
Weather: no significant weather observed at this time

METAR text: LEAS 121230Z 09016G26KT 050V120 CAVOK 12/03 Q1026 NOSIG
Conditions at: LEAS (ASTURIAS/AVILES , ES) observed 1230 UTC 12 April 2021
Temperature: 12.0°C (54°F)
Dewpoint: 3.0°C (37°F) [RH = 54%]
Pressure (altimeter): 30.30 inches Hg (1026.0 mb)
Winds: from the E (90 degrees) at 18 MPH (16 knots; 8.2 m/s)
gusting to 30 MPH (26 knots; 13.4 m/s)
Visibility: 6 or more miles (10+ km)
Ceiling: ceiling and visibility are OK
Clouds: unknown
Weather: no significant weather observed at this time

Forecast for: LEAS (ASTURIAS/AVILES , ES)
Text: TAF LEAS 120800Z 1209/1309 10012KT CAVOK TX12/1215Z TN04/1305Z
Forecast period: 0900 to 2200 UTC 12 April 2021
Forecast type: FROM: standard forecast or significant change
Winds: from the E (100 degrees) at 14 MPH (12 knots; 6.2 m/s)
Visibility: 6 or more miles (10+ km)
Ceiling: unknown
Clouds: missing
Weather: no significant weather forecast for this period
Text: TEMPO 1210/1218 08017G28KT
Forecast period: 1000 to 1800 UTC 12 April 2021
Forecast type: TEMPORARY: The following changes expected for less than half the time period
Winds: from the E (80 degrees) at 20 MPH (17 knots; 8.7 m/s)
gusting to 32 MPH (28 knots; 14.4 m/s)
Visibility: missing
Ceiling: unknown
Clouds: missing
Weather: no significant weather forecast for this period
Text: BECMG 1222/1302 16008KT
Forecast period: 2200 UTC 12 April 2021 to 0900 UTC 13 April 2021
Forecast type: BECOMING: Conditions expected to become as follows by 0200 UTC 13 April 2021
Winds: from the SSE (160 degrees) at 9 MPH (8 knots; 4.1 m/s)
Visibility: 6 or more miles (10+ km)
Ceiling: unknown
Clouds: missing
Weather: no significant weather forecast for this period

 MAPA DE AEROPUERTO

 INFORMACIÓN DE PISTA